Bryant, Iowa
Current Conditions -  °F | °C
As of 2:55 AM on Friday 24 Oct 2014 (Local Time) from KCWI Reporting Station
Overcast Overcast  
Wind Chill: 39°   Ceiling: Unl
Heat Index: 39°   Visibility: 0mi
Dew Point: 37°   Wind: 3mph
Humidity: 93%   Direction: 290°WNW
Pressure: 30.08"   Gusts: NA
Location:  41.96°N, 90.33°W
Report Text: KCWI 240755Z 29003KT M1/4SM VV000 04/03 A3008 RMK AO1
Loading
Personal Weather Stations






























Interactive Weather Map
Tropical Storm Tracking
New forecast layout! Learn more

10-Day Weather Forecast

Advertisements
Track Severe Weather on mobile